Time,TemperatureF,DewpointF,PressureIn,WindDirection,WindDirectionDegrees,WindSpeedMPH,WindSpeedGustMPH,Humidity,HourlyPrecipIn,Conditions,Clouds,dailyrainin,SoftwareType,DateUTC
2013-04-13 00:00:00,64.0,64.0,29.77,SW,230,13.0,18.0,100,-99.99,,,-99.99,,2013-04-13 04:00:00,
2013-04-13 00:22:00,64.0,64.0,29.77,SW,230,13.0,18.0,100,-99.99,,,-99.99,,2013-04-13 04:22:00,
2013-04-13 00:32:00,64.0,64.0,29.77,SW,230,13.0,18.0,100,-99.99,,,-99.99,,2013-04-13 04:32:00,
2013-04-13 00:42:00,64.0,64.0,29.77,SW,230,13.0,18.0,100,-99.99,,,-99.99,,2013-04-13 04:42:00,
2013-04-13 00:53:00,64.0,64.0,29.77,SW,230,13.0,18.0,100,-99.99,,,-99.99,,2013-04-13 04:53:00,
2013-04-13 01:00:00,65.0,65.0,29.77,SW,230,14.0,17.0,100,-99.99,,,-99.99,,2013-04-13 05:00:00,
2013-04-13 01:22:00,65.0,65.0,29.77,SW,230,14.0,17.0,100,-99.99,,,-99.99,,2013-04-13 05:22:00,
2013-04-13 01:31:00,65.0,65.0,29.77,SW,230,14.0,17.0,100,-99.99,,,-99.99,,2013-04-13 05:31:00,
2013-04-13 01:42:00,65.0,65.0,29.77,SW,230,14.0,17.0,100,-99.99,,,-99.99,,2013-04-13 05:42:00,
2013-04-13 01:52:00,65.0,65.0,29.77,SW,230,14.0,17.0,100,-99.99,,,-99.99,,2013-04-13 05:52:00,
2013-04-13 02:00:00,63.0,63.0,29.77,SSW,210,11.0,14.0,100,-99.99,,,-99.99,,2013-04-13 06:00:00,
2013-04-13 02:21:00,63.0,63.0,29.77,SSW,210,11.0,14.0,100,-99.99,,,-99.99,,2013-04-13 06:21:00,
2013-04-13 02:42:00,63.0,63.0,29.77,SSW,210,11.0,14.0,100,-99.99,,,-99.99,,2013-04-13 06:42:00,
2013-04-13 02:52:00,63.0,63.0,29.77,SSW,210,11.0,14.0,100,-99.99,,,-99.99,,2013-04-13 06:52:00,
2013-04-13 03:00:00,63.0,63.0,29.75,West,270,16.0,18.0,100,-99.99,,,-99.99,,2013-04-13 07:00:00,
2013-04-13 03:32:00,63.0,63.0,29.75,West,270,16.0,18.0,100,-99.99,,,-99.99,,2013-04-13 07:32:00,
2013-04-13 03:42:00,63.0,63.0,29.75,West,270,16.0,18.0,100,-99.99,,,-99.99,,2013-04-13 07:42:00,
2013-04-13 03:52:00,63.0,63.0,29.75,West,270,16.0,18.0,100,-99.99,,,-99.99,,2013-04-13 07:52:00,
2013-04-13 04:00:00,63.0,63.0,29.78,West,260,15.0,18.0,100,-99.99,,,-99.99,,2013-04-13 08:00:00,
2013-04-13 04:22:00,63.0,63.0,29.78,West,260,15.0,18.0,100,-99.99,,,-99.99,,2013-04-13 08:22:00,
2013-04-13 04:31:00,63.0,63.0,29.78,West,260,15.0,18.0,100,-99.99,,,-99.99,,2013-04-13 08:31:00,
2013-04-13 04:52:00,63.0,63.0,29.78,West,260,15.0,18.0,100,-99.99,,,-99.99,,2013-04-13 08:52:00,
2013-04-13 05:00:00,62.0,62.0,29.80,West,270,10.0,13.0,100,-99.99,,,-99.99,,2013-04-13 09:00:00,
2013-04-13 05:22:00,62.0,62.0,29.80,West,270,10.0,13.0,100,-99.99,,,-99.99,,2013-04-13 09:22:00,
2013-04-13 05:32:00,62.0,62.0,29.80,West,270,10.0,13.0,100,-99.99,,,-99.99,,2013-04-13 09:32:00,
2013-04-13 05:52:00,62.0,62.0,29.80,West,270,10.0,13.0,100,-99.99,,,-99.99,,2013-04-13 09:52:00,
2013-04-13 06:00:00,61.0,61.0,29.83,West,280,10.0,13.0,100,-99.99,,,-99.99,,2013-04-13 10:00:00,
2013-04-13 06:22:00,61.0,61.0,29.83,West,280,10.0,13.0,100,-99.99,,,-99.99,,2013-04-13 10:22:00,
2013-04-13 06:32:00,61.0,61.0,29.83,West,280,10.0,13.0,100,-99.99,,,-99.99,,2013-04-13 10:32:00,
2013-04-13 06:42:00,61.0,61.0,29.83,West,280,10.0,13.0,100,-99.99,,,-99.99,,2013-04-13 10:42:00,
2013-04-13 06:52:00,61.0,61.0,29.83,West,280,10.0,13.0,100,-99.99,,,-99.99,,2013-04-13 10:52:00,
2013-04-13 07:00:00,64.0,58.0,29.85,NW,320,11.0,14.0,81,-99.99,,,-99.99,,2013-04-13 11:00:00,
2013-04-13 07:22:00,64.0,58.0,29.85,NW,320,11.0,14.0,81,-99.99,,,-99.99,,2013-04-13 11:22:00,
2013-04-13 07:32:00,64.0,58.0,29.85,NW,320,11.0,14.0,81,-99.99,,,-99.99,,2013-04-13 11:32:00,
2013-04-13 07:42:00,64.0,58.0,29.85,NW,320,11.0,14.0,81,-99.99,,,-99.99,,2013-04-13 11:42:00,
2013-04-13 07:52:00,64.0,58.0,29.85,NW,320,11.0,14.0,81,-99.99,,,-99.99,,2013-04-13 11:52:00,
2013-04-13 08:00:00,63.0,52.0,29.89,North,350,15.0,18.0,67,-99.99,,,-99.99,,2013-04-13 12:00:00,
2013-04-13 08:22:00,63.0,52.0,29.89,North,350,15.0,18.0,67,-99.99,,,-99.99,,2013-04-13 12:22:00,
2013-04-13 08:32:00,63.0,52.0,29.89,North,350,15.0,18.0,67,-99.99,,,-99.99,,2013-04-13 12:32:00,
2013-04-13 08:52:00,63.0,52.0,29.89,North,350,15.0,18.0,67,-99.99,,,-99.99,,2013-04-13 12:52:00,
2013-04-13 09:00:00,58.0,57.0,29.92,NE,40,26.0,30.0,96,-99.99,,,-99.99,,2013-04-13 13:00:00,
2013-04-13 09:22:00,58.0,57.0,29.92,NE,40,26.0,30.0,96,-99.99,,,-99.99,,2013-04-13 13:22:00,
2013-04-13 09:32:00,58.0,57.0,29.92,NE,40,26.0,30.0,96,-99.99,,,-99.99,,2013-04-13 13:32:00,
2013-04-13 09:42:00,58.0,57.0,29.92,NE,40,26.0,30.0,96,-99.99,,,-99.99,,2013-04-13 13:42:00,
2013-04-13 09:52:00,58.0,57.0,29.92,NE,40,26.0,30.0,96,-99.99,,,-99.99,,2013-04-13 13:52:00,
2013-04-13 10:00:00,58.0,50.0,29.94,NE,40,26.0,29.0,76,-99.99,,,-99.99,,2013-04-13 14:00:00,
2013-04-13 10:21:00,58.0,50.0,29.94,NE,40,26.0,29.0,76,-99.99,,,-99.99,,2013-04-13 14:21:00,
2013-04-13 10:32:00,58.0,50.0,29.94,NE,40,26.0,29.0,76,-99.99,,,-99.99,,2013-04-13 14:32:00,
2013-04-13 10:42:00,58.0,50.0,29.94,NE,40,26.0,29.0,76,-99.99,,,-99.99,,2013-04-13 14:42:00,
2013-04-13 10:52:00,58.0,50.0,29.94,NE,40,26.0,29.0,76,-99.99,,,-99.99,,2013-04-13 14:52:00,
2013-04-13 11:00:00,58.0,49.0,29.96,NE,40,22.0,26.0,73,-99.99,,,-99.99,,2013-04-13 15:00:00,
2013-04-13 11:22:00,58.0,49.0,29.96,NE,40,22.0,26.0,73,-99.99,,,-99.99,,2013-04-13 15:22:00,
2013-04-13 11:32:00,58.0,49.0,29.96,NE,40,22.0,26.0,73,-99.99,,,-99.99,,2013-04-13 15:32:00,
2013-04-13 12:22:00,58.0,47.0,29.96,NE,40,22.0,24.0,68,-99.99,,,-99.99,,2013-04-13 16:22:00,
2013-04-13 12:33:00,58.0,47.0,29.96,NE,40,22.0,24.0,68,-99.99,,,-99.99,,2013-04-13 16:33:00,
2013-04-13 12:52:00,58.0,47.0,29.96,NE,40,22.0,24.0,68,-99.99,,,-99.99,,2013-04-13 16:52:00,
2013-04-13 13:00:00,57.0,47.0,29.98,NE,50,20.0,22.0,68,-99.99,,,-99.99,,2013-04-13 17:00:00,
2013-04-13 13:22:00,57.0,47.0,29.98,NE,50,20.0,22.0,68,-99.99,,,-99.99,,2013-04-13 17:22:00,
2013-04-13 13:32:00,57.0,47.0,29.98,NE,50,20.0,22.0,68,-99.99,,,-99.99,,2013-04-13 17:32:00,
2013-04-13 13:52:00,57.0,47.0,29.98,NE,50,20.0,22.0,68,-99.99,,,-99.99,,2013-04-13 17:52:00,
2013-04-13 14:00:00,57.0,46.0,29.98,ENE,60,18.0,20.0,65,-99.99,,,-99.99,,2013-04-13 18:00:00,
2013-04-13 14:22:00,57.0,46.0,29.98,ENE,60,18.0,20.0,65,-99.99,,,-99.99,,2013-04-13 18:22:00,
2013-04-13 14:31:00,57.0,46.0,29.98,ENE,60,18.0,20.0,65,-99.99,,,-99.99,,2013-04-13 18:31:00,
2013-04-13 14:42:00,57.0,46.0,29.98,ENE,60,18.0,20.0,65,-99.99,,,-99.99,,2013-04-13 18:42:00,
2013-04-13 14:52:00,57.0,46.0,29.98,ENE,60,18.0,20.0,65,-99.99,,,-99.99,,2013-04-13 18:52:00,
2013-04-13 15:00:00,57.0,46.0,29.97,ENE,60,17.0,18.0,66,-99.99,,,-99.99,,2013-04-13 19:00:00,
2013-04-13 15:21:00,57.0,46.0,29.97,ENE,60,17.0,18.0,66,-99.99,,,-99.99,,2013-04-13 19:21:00,
2013-04-13 15:32:00,57.0,46.0,29.97,ENE,60,17.0,18.0,66,-99.99,,,-99.99,,2013-04-13 19:32:00,
2013-04-13 15:41:00,57.0,46.0,29.97,ENE,60,17.0,18.0,66,-99.99,,,-99.99,,2013-04-13 19:41:00,
2013-04-13 15:52:00,57.0,46.0,29.97,ENE,60,17.0,18.0,66,-99.99,,,-99.99,,2013-04-13 19:52:00,
2013-04-13 16:00:00,57.0,46.0,29.96,ENE,60,16.0,17.0,66,-99.99,,,-99.99,,2013-04-13 20:00:00,
2013-04-13 16:21:00,57.0,46.0,29.96,ENE,60,16.0,17.0,66,-99.99,,,-99.99,,2013-04-13 20:21:00,
2013-04-13 16:31:00,57.0,46.0,29.96,ENE,60,16.0,17.0,66,-99.99,,,-99.99,,2013-04-13 20:31:00,
2013-04-13 16:41:00,57.0,46.0,29.96,ENE,60,16.0,17.0,66,-99.99,,,-99.99,,2013-04-13 20:41:00,
2013-04-13 16:52:00,57.0,46.0,29.96,ENE,60,16.0,17.0,66,-99.99,,,-99.99,,2013-04-13 20:52:00,
2013-04-13 17:00:00,57.0,46.0,29.96,ENE,70,16.0,17.0,65,-99.99,,,-99.99,,2013-04-13 21:00:00,
2013-04-13 17:21:00,57.0,46.0,29.96,ENE,70,16.0,17.0,65,-99.99,,,-99.99,,2013-04-13 21:21:00,
2013-04-13 17:32:00,57.0,46.0,29.96,ENE,70,16.0,17.0,65,-99.99,,,-99.99,,2013-04-13 21:32:00,
2013-04-13 17:42:00,57.0,46.0,29.96,ENE,70,16.0,17.0,65,-99.99,,,-99.99,,2013-04-13 21:42:00,
2013-04-13 17:52:00,57.0,46.0,29.96,ENE,70,16.0,17.0,65,-99.99,,,-99.99,,2013-04-13 21:52:00,
2013-04-13 18:00:00,57.0,45.0,29.96,East,80,17.0,18.0,63,-99.99,,,-99.99,,2013-04-13 22:00:00,
2013-04-13 18:22:00,57.0,45.0,29.96,East,80,17.0,18.0,63,-99.99,,,-99.99,,2013-04-13 22:22:00,
2013-04-13 18:32:00,57.0,45.0,29.96,East,80,17.0,18.0,63,-99.99,,,-99.99,,2013-04-13 22:32:00,
2013-04-13 18:42:00,57.0,45.0,29.96,East,80,17.0,18.0,63,-99.99,,,-99.99,,2013-04-13 22:42:00,
2013-04-13 18:52:00,57.0,45.0,29.96,East,80,17.0,18.0,63,-99.99,,,-99.99,,2013-04-13 22:52:00,
2013-04-13 19:00:00,58.0,46.0,29.97,East,80,17.0,18.0,64,-99.99,,,-99.99,,2013-04-13 23:00:00,
2013-04-13 19:22:00,58.0,46.0,29.97,East,80,17.0,18.0,64,-99.99,,,-99.99,,2013-04-13 23:22:00,
2013-04-13 19:32:00,58.0,46.0,29.97,East,80,17.0,18.0,64,-99.99,,,-99.99,,2013-04-13 23:32:00,
2013-04-13 19:41:00,58.0,46.0,29.97,East,80,17.0,18.0,64,-99.99,,,-99.99,,2013-04-13 23:41:00,
2013-04-13 19:52:00,58.0,46.0,29.97,East,80,17.0,18.0,64,-99.99,,,-99.99,,2013-04-13 23:52:00,
2013-04-13 20:00:00,58.0,47.0,29.97,East,90,14.0,14.0,65,-99.99,,,-99.99,,2013-04-14 00:00:00,
2013-04-13 20:21:00,58.0,47.0,29.97,East,90,14.0,14.0,65,-99.99,,,-99.99,,2013-04-14 00:21:00,
2013-04-13 20:31:00,58.0,47.0,29.97,East,90,14.0,14.0,65,-99.99,,,-99.99,,2013-04-14 00:31:00,
2013-04-13 20:41:00,58.0,47.0,29.97,East,90,14.0,14.0,65,-99.99,,,-99.99,,2013-04-14 00:41:00,
2013-04-13 20:52:00,58.0,47.0,29.97,East,90,14.0,14.0,65,-99.99,,,-99.99,,2013-04-14 00:52:00,
2013-04-13 21:00:00,59.0,49.0,30.00,East,80,8.0,10.0,70,-99.99,,,-99.99,,2013-04-14 01:00:00,
2013-04-13 21:21:00,59.0,49.0,30.00,East,80,8.0,10.0,70,-99.99,,,-99.99,,2013-04-14 01:21:00,
2013-04-13 21:32:00,59.0,49.0,30.00,East,80,8.0,10.0,70,-99.99,,,-99.99,,2013-04-14 01:32:00,
2013-04-13 21:41:00,59.0,49.0,30.00,East,80,8.0,10.0,70,-99.99,,,-99.99,,2013-04-14 01:41:00,
2013-04-13 21:52:00,59.0,49.0,30.00,East,80,8.0,10.0,70,-99.99,,,-99.99,,2013-04-14 01:52:00,
2013-04-13 22:00:00,59.0,51.0,30.02,East,80,7.0,7.0,73,-99.99,,,-99.99,,2013-04-14 02:00:00,
2013-04-13 22:21:00,59.0,51.0,30.02,East,80,7.0,7.0,73,-99.99,,,-99.99,,2013-04-14 02:21:00,
2013-04-13 22:31:00,59.0,51.0,30.02,East,80,7.0,7.0,73,-99.99,,,-99.99,,2013-04-14 02:31:00,
2013-04-13 22:41:00,59.0,51.0,30.02,East,80,7.0,7.0,73,-99.99,,,-99.99,,2013-04-14 02:41:00,
2013-04-13 22:52:00,59.0,51.0,30.02,East,80,7.0,7.0,73,-99.99,,,-99.99,,2013-04-14 02:52:00,
2013-04-13 23:00:00,59.0,52.0,30.02,East,80,5.0,5.0,77,-99.99,,,-99.99,,2013-04-14 03:00:00,
2013-04-13 23:21:00,59.0,52.0,30.02,East,80,5.0,5.0,77,-99.99,,,-99.99,,2013-04-14 03:21:00,
2013-04-13 23:32:00,59.0,52.0,30.02,East,80,5.0,5.0,77,-99.99,,,-99.99,,2013-04-14 03:32:00,
2013-04-13 23:42:00,59.0,52.0,30.02,East,80,5.0,5.0,77,-99.99,,,-99.99,,2013-04-14 03:42:00,
2013-04-13 23:52:00,59.0,52.0,30.02,East,80,5.0,5.0,77,-99.99,,,-99.99,,2013-04-14 03:52:00,